Pagrindinis puslapis
METAR-TAF:

METAR-TAF

Oro uostai :

Chignik, Aliaska, Jungtinės Amerikos Valstijos

platuma: 56-18-41N, ilguma: 158-22-24W, Aukštis: 6 m

Dabartinis oras

Ataskaita buvo paskelbta 1 valandą ir 6 minutes, ne 06:57 UTC
Vėjas 8 kt iš Vakarų su gūsio iki 22 kt, svyruoja nuo Vakarų/Pietvakarių ir Šiaurės Vakarų
Temperatūra 13°C
Drėgmė 67%
Slėgis 1007 hPa
Matomumas: 16.1 km
Apsiniaukę ne aukštis 2800 ft

METAR: PAJC 160657Z AUTO 28008G22KT 240V310 10SM OVC028 13/07 A2973 RMK AO2 PK WND 28035/0619 RAB18E39 SLP068 T01280072 PNO $

Laikas: 00:03 (08:03 UTC)


TAF: trūkstamas

Orai ataskaitas ir orų prognozės (METAR, TAF).

turimą stotys yra geltonos ir raudonos taškus žemėlapyje.

Perkelti pele per norėdami pamatyti stoties vardą.

Tada spustelėkite, norėdami matyti oro stebėjimo ir prognozės.

Norėdami pakeisti žemėlapį: spustelėkite ant žalios mygtukų su juodo kryžiaus žemyn,; žalią mygtuką su brūkšneliu, jei norite nutolinti; arba žalių rodyklių gretimoms žemėlapius.


METAR-TAF: